地図

経路データ

SID SEASON NUMBER BASIN SUBBASIN NAME ISO_TIME NATURE LAT LON WMO_WIND WMO_PRES WMO_AGENCY TRACK_TYPE DIST2LAND LANDFALL IFLAG USA_AGENCY USA_ATCF_ID USA_LAT USA_LON USA_RECORD USA_STATUS USA_WIND USA_PRES USA_SSHS USA_R34_NE USA_R34_SE USA_R34_SW USA_R34_NW USA_R50_NE USA_R50_SE USA_R50_SW USA_R50_NW USA_R64_NE USA_R64_SE USA_R64_SW USA_R64_NW USA_POCI USA_ROCI USA_RMW USA_EYE TOKYO_LAT TOKYO_LON TOKYO_GRADE TOKYO_WIND TOKYO_PRES TOKYO_R50_DIR TOKYO_R50_LONG TOKYO_R50_SHORT TOKYO_R30_DIR TOKYO_R30_LONG TOKYO_R30_SHORT TOKYO_LAND CMA_LAT CMA_LON CMA_CAT CMA_WIND CMA_PRES HKO_LAT HKO_LON HKO_CAT HKO_WIND HKO_PRES NEWDELHI_LAT NEWDELHI_LON NEWDELHI_GRADE NEWDELHI_WIND NEWDELHI_PRES NEWDELHI_CI NEWDELHI_DP NEWDELHI_POCI REUNION_LAT REUNION_LON REUNION_TYPE REUNION_WIND REUNION_PRES REUNION_TNUM REUNION_CI REUNION_RMW REUNION_R34_NE REUNION_R34_SE REUNION_R34_SW REUNION_R34_NW REUNION_R50_NE REUNION_R50_SE REUNION_R50_SW REUNION_R50_NW REUNION_R64_NE REUNION_R64_SE REUNION_R64_SW REUNION_R64_NW BOM_LAT BOM_LON BOM_TYPE BOM_WIND BOM_PRES BOM_TNUM BOM_CI BOM_RMW BOM_R34_NE BOM_R34_SE BOM_R34_SW BOM_R34_NW BOM_R50_NE BOM_R50_SE BOM_R50_SW BOM_R50_NW BOM_R64_NE BOM_R64_SE BOM_R64_SW BOM_R64_NW BOM_ROCI BOM_POCI BOM_EYE BOM_POS_METHOD BOM_PRES_METHOD NADI_LAT NADI_LON NADI_CAT NADI_WIND NADI_PRES WELLINGTON_LAT WELLINGTON_LON WELLINGTON_WIND WELLINGTON_PRES DS824_LAT DS824_LON DS824_STAGE DS824_WIND DS824_PRES TD9636_LAT TD9636_LON TD9636_STAGE TD9636_WIND TD9636_PRES TD9635_LAT TD9635_LON TD9635_WIND TD9635_PRES TD9635_ROCI NEUMANN_LAT NEUMANN_LON NEUMANN_CLASS NEUMANN_WIND NEUMANN_PRES MLC_LAT MLC_LON MLC_CLASS MLC_WIND MLC_PRES USA_GUST BOM_GUST BOM_GUST_PER REUNION_GUST REUNION_GUST_PER USA_SEAHGT USA_SEARAD_NE USA_SEARAD_SE USA_SEARAD_SW USA_SEARAD_NW STORM_SPEED STORM_DIR
1932272N13141 1932 56 WP MM NOT_NAMED 1932-09-27 21:00:00 NR 13.3000 140.700 main 1640 1631 __________O___ -1 13.3000 140.700 7 6 331
1932272N13141 1932 56 WP MM NOT_NAMED 1932-09-28 00:00:00 NR 13.5578 140.555 main 1634 1615 __________P___ -1 13.5578 140.555 7 6 330
1932272N13141 1932 56 WP MM NOT_NAMED 1932-09-28 03:00:00 NR 13.8024 140.398 main 1616 1599 __________P___ -1 13.8024 140.398 7 6 325
1932272N13141 1932 56 WP MM NOT_NAMED 1932-09-28 06:00:00 NR 14.0208 140.217 main 1599 1582 __________P___ -1 14.0208 140.217 7 6 316
1932272N13141 1932 56 WP MM NOT_NAMED 1932-09-28 09:00:00 NR 14.2000 140.000 main 1582 1563 __________O___ -1 14.2000 140.000 4 6 304
1932272N13141 1932 56 WP MM NOT_NAMED 1932-09-28 12:00:00 NR 14.3336 139.741 main 1553 1534 __________P___ -1 14.3336 139.741 4 6 295
1932272N13141 1932 56 WP MM NOT_NAMED 1932-09-28 15:00:00 NR 14.4427 139.457 main 1534 1504 __________P___ -1 14.4427 139.457 4 6 292
1932272N13141 1932 56 WP MM NOT_NAMED 1932-09-28 18:00:00 NR 14.5554 139.169 main 1506 1476 __________P___ -1 14.5554 139.169 4 6 296
1932272N13141 1932 56 WP MM NOT_NAMED 1932-09-28 21:00:00 NR 14.7000 138.900 main 1476 1459 __________O___ -1 14.7000 138.900 4 6 311
1932272N13141 1932 56 WP MM NOT_NAMED 1932-09-29 00:00:00 NR 14.9297 138.731 main 1459 1452 __________P___ -1 14.9297 138.731 4 6 327
1932272N13141 1932 56 WP MM NOT_NAMED 1932-09-29 03:00:00 NR 15.1915 138.575 main 1454 1438 __________P___ -1 15.1915 138.575 4 6 327
1932272N13141 1932 56 WP MM NOT_NAMED 1932-09-29 06:00:00 NR 15.4576 138.381 main 1441 1415 __________P___ -1 15.4576 138.381 4 7 318
1932272N13141 1932 56 WP MM NOT_NAMED 1932-09-29 09:00:00 NR 15.7000 138.100 main 1415 1376 __________O___ -1 15.7000 138.100 4 8 300
1932272N13141 1932 56 WP MM NOT_NAMED 1932-09-29 12:00:00 NR 15.8509 137.660 main 1379 1331 __________P___ -1 15.8509 137.660 4 10 287
1932272N13141 1932 56 WP MM NOT_NAMED 1932-09-29 15:00:00 NR 15.9783 137.132 main 1321 1274 __________P___ -1 15.9783 137.132 4 11 284
1932272N13141 1932 56 WP MM NOT_NAMED 1932-09-29 18:00:00 NR 16.1165 136.563 main 1274 1221 __________P___ -1 16.1165 136.563 4 11 286
1932272N13141 1932 56 WP MM NOT_NAMED 1932-09-29 21:00:00 NR 16.3000 136.000 main 1221 1170 __________O___ -1 16.3000 136.000 4 12 292
1932272N13141 1932 56 WP MM NOT_NAMED 1932-09-30 00:00:00 NR 16.5590 135.394 main 1174 1125 __________P___ -1 16.5590 135.394 4 13 297
1932272N13141 1932 56 WP MM NOT_NAMED 1932-09-30 03:00:00 NR 16.8682 134.820 main 1130 1103 __________P___ -1 16.8682 134.820 4 12 304
1932272N13141 1932 56 WP MM NOT_NAMED 1932-09-30 06:00:00 NR 17.2182 134.360 main 1108 1095 __________P___ -1 17.2182 134.360 4 10 317
1932272N13141 1932 56 WP MM NOT_NAMED 1932-09-30 09:00:00 NR 17.6000 134.100 main 1104 1104 __________O___ -1 17.6000 134.100 4 8 346
1932272N13141 1932 56 WP MM NOT_NAMED 1932-09-30 12:00:00 NR 18.0365 134.143 main 1128 1128 __________P___ -1 18.0365 134.143 4 9 17
1932272N13141 1932 56 WP MM NOT_NAMED 1932-09-30 15:00:00 NR 18.4949 134.387 main 1185 1185 __________P___ -1 18.4949 134.387 4 11 32
1932272N13141 1932 56 WP MM NOT_NAMED 1932-09-30 18:00:00 NR 18.9307 134.737 main 1232 1232 __________P___ -1 18.9307 134.737 4 11 40
1932272N13141 1932 56 WP MM NOT_NAMED 1932-09-30 21:00:00 NR 19.3000 135.100 main 1290 1290 __________O___ -1 19.3000 135.100 4 8 43
1932272N13141 1932 56 WP MM NOT_NAMED 1932-10-01 00:00:00 NR 19.5346 135.337 main 1318 1318 __________P___ -1 19.5346 135.337 4 6 47
1932272N13141 1932 56 WP MM NOT_NAMED 1932-10-01 03:00:00 NR 19.7023 135.566 main 1354 1343 __________P___ -1 19.7023 135.566 4 5 54
1932272N13141 1932 56 WP MM NOT_NAMED 1932-10-01 06:00:00 NR 19.8440 135.787 main 1351 1334 __________P___ -1 19.8440 135.787 4 5 54
1932272N13141 1932 56 WP MM NOT_NAMED 1932-10-01 09:00:00 NR 20.0000 136.000 main 1338 1325 __________O___ -1 20.0000 136.000 4 6 47
1932272N13141 1932 56 WP MM NOT_NAMED 1932-10-01 12:00:00 NR 20.2244 136.227 main 1325 1303 __________P___ -1 20.2244 136.227 4 6 42
1932272N13141 1932 56 WP MM NOT_NAMED 1932-10-01 15:00:00 NR 20.4701 136.445 main 1303 1292 __________P___ -1 20.4701 136.445 4 6 37
1932272N13141 1932 56 WP MM NOT_NAMED 1932-10-01 18:00:00 NR 20.7307 136.640 main 1292 1271 __________P___ -1 20.7307 136.640 4 6 32
1932272N13141 1932 56 WP MM NOT_NAMED 1932-10-01 21:00:00 NR 21.0000 136.800 main 1271 1256 __________O___ -1 21.0000 136.800 4 6 25
1932272N13141 1932 56 WP MM NOT_NAMED 1932-10-02 00:00:00 NR 21.2310 136.888 main 1256 1227 __________P___ -1 21.2310 136.888 4 5 16
1932272N13141 1932 56 WP MM NOT_NAMED 1932-10-02 03:00:00 NR 21.4747 136.944 main 1227 1212 __________P___ -1 21.4747 136.944 4 5 11
1932272N13141 1932 56 WP MM NOT_NAMED 1932-10-02 06:00:00 NR 21.7560 137.003 main 1203 1179 __________P___ -1 21.7560 137.003 4 6 13
1932272N13141 1932 56 WP MM NOT_NAMED 1932-10-02 09:00:00 NR 22.1000 137.100 main 1179 1152 __________O___ -1 22.1000 137.100 4 8 20
1932272N13141 1932 56 WP MM NOT_NAMED 1932-10-02 12:00:00 NR 22.5072 137.294 main 1152 1114 __________P___ -1 22.5072 137.294 4 10 24
1932272N13141 1932 56 WP MM NOT_NAMED 1932-10-02 15:00:00 NR 22.9805 137.527 main 1114 1078 __________P___ -1 22.9805 137.527 4 11 24
1932272N13141 1932 56 WP MM NOT_NAMED 1932-10-02 18:00:00 NR 23.5135 137.772 main 1083 1041 __________P___ -1 23.5135 137.772 4 12 21
1932272N13141 1932 56 WP MM NOT_NAMED 1932-10-02 21:00:00 NR 24.1000 138.000 main 1041 998 __________O___ -1 24.1000 138.000 4 13 17
1932272N13141 1932 56 WP MM NOT_NAMED 1932-10-03 00:00:00 NR 24.7043 138.172 main 998 935 __________P___ -1 24.7043 138.172 4 13 13
1932272N13141 1932 56 WP MM NOT_NAMED 1932-10-03 03:00:00 NR 25.3600 138.324 main 924 863 __________P___ -1 25.3600 138.324 4 14 11
1932272N13141 1932 56 WP MM NOT_NAMED 1932-10-03 06:00:00 NR 26.0606 138.463 main 855 783 __________P___ -1 26.0606 138.463 4 15 10
1932272N13141 1932 56 WP MM NOT_NAMED 1932-10-03 09:00:00 NR 26.8000 138.600 main 783 714 __________O___ -1 26.8000 138.600 7 15 8
1932272N13141 1932 56 WP MM NOT_NAMED 1932-10-03 12:00:00 NR 27.5271 138.705 main 714 636 __________P___ -1 27.5271 138.705 7 15 7
1932272N13141 1932 56 WP MM NOT_NAMED 1932-10-03 15:00:00 NR 28.2944 138.817 main 636 567 __________P___ -1 28.2944 138.817 7 16 8
1932272N13141 1932 56 WP MM NOT_NAMED 1932-10-03 18:00:00 NR 29.1144 138.969 main 567 496 __________P___ -1 29.1144 138.969 7 17 11
1932272N13141 1932 56 WP MM NOT_NAMED 1932-10-03 21:00:00 NR 30.0000 139.200 main 496 437 __________O___ -1 30.0000 139.200 7 17 12
1932272N13141 1932 56 WP MM NOT_NAMED 1932-10-04 00:00:00 NR 30.7623 139.357 main 427 342 __________P___ -1 30.7623 139.357 7 17 13
1932272N13141 1932 56 WP MM NOT_NAMED 1932-10-04 03:00:00 NR 31.6165 139.623 main 342 249 __________P___ -1 31.6165 139.623 7 20 19
1932272N13141 1932 56 WP MM NOT_NAMED 1932-10-04 06:00:00 NR 32.6875 140.125 main 243 135 __________P___ -1 32.6875 140.125 7 27 25
1932272N13141 1932 56 WP MM NOT_NAMED 1932-10-04 09:00:00 NR 34.1000 141.000 main 134 91 __________O___ -1 34.1000 141.000 7 41 28
1932272N13141 1932 56 WP MM NOT_NAMED 1932-10-04 12:00:00 NR 36.2497 142.447 main 145 145 __________P___ -1 36.2497 142.447 7 53 31
1932272N13141 1932 56 WP MM NOT_NAMED 1932-10-04 15:00:00 NR 38.6783 144.369 main 217 217 __________P___ -1 38.6783 144.369 7 58 34
1932272N13141 1932 56 WP MM NOT_NAMED 1932-10-04 18:00:00 NR 41.0147 146.623 main 258 225 __________P___ -1 41.0147 146.623 7 55 40
1932272N13141 1932 56 WP MM NOT_NAMED 1932-10-04 21:00:00 NR 42.9000 149.000 main 237 205 __________O___ -1 42.9000 149.000 7 46 48
1932272N13141 1932 56 WP MM NOT_NAMED 1932-10-05 00:00:00 NR 44.0883 151.272 main 208 208 __________P___ -1 44.0883 151.272 7 36 60
1932272N13141 1932 56 WP MM NOT_NAMED 1932-10-05 03:00:00 NR 44.6916 153.390 main 280 280 __________P___ -1 44.6916 153.390 7 30 74
1932272N13141 1932 56 WP MM NOT_NAMED 1932-10-05 06:00:00 NR 44.9010 155.382 main 410 410 __________P___ -1 44.9010 155.382 7 28 86
1932272N13141 1932 56 WP MM NOT_NAMED 1932-10-05 09:00:00 NR 44.9000 157.300 main 551 __________O___ -1 44.9000 157.300 7 27 90

デジタル台風データ・検索

IBTrACS Databaseについて

本データベースは、米国NOAAが公開する1842年以降の世界の熱帯低気圧のベストトラックデータアーカイブInternational Best Track Archive for Climate Stewardship (IBTrACS)を、ウェブで閲覧しやすい形式に変換したものです。

最終更新日:2021-12-03